createdAt,value
2019-03-31T00:01:16.642Z,99897.91
2019-03-31T00:03:45.042Z,99896.20
2019-03-31T00:06:13.431Z,99892.38
2019-03-31T00:08:41.841Z,99891.70
2019-03-31T00:11:10.231Z,99893.69
2019-03-31T00:13:38.618Z,99898.64
2019-03-31T00:16:07.032Z,99903.26
2019-03-31T00:18:35.418Z,99903.34
2019-03-31T00:21:03.813Z,99903.26
2019-03-31T00:23:32.217Z,99899.47
2019-03-31T00:26:00.600Z,99909.52
2019-03-31T00:28:29.018Z,99907.41
2019-03-31T00:30:57.404Z,99908.44
2019-03-31T00:33:25.791Z,99913.11
2019-03-31T00:35:54.208Z,99911.20
2019-03-31T00:38:22.603Z,99905.96
2019-03-31T00:40:50.995Z,99915.57
2019-03-31T00:43:19.409Z,99911.77
2019-03-31T00:45:47.797Z,99909.13
2019-03-31T00:48:16.185Z,99914.77
2019-03-31T00:50:44.591Z,99911.06
2019-03-31T00:53:12.980Z,99908.86
2019-03-31T00:55:41.377Z,99905.92
2019-03-31T00:58:09.791Z,99898.92
2019-03-31T01:00:48.543Z,99904.58
2019-03-31T01:03:18.815Z,99900.77
2019-03-31T01:05:47.683Z,99900.13
2019-03-31T01:08:16.238Z,99893.98
2019-03-31T01:10:45.063Z,99893.98
2019-03-31T01:13:14.466Z,99894.90
2019-03-31T01:15:43.024Z,99895.66
2019-03-31T01:18:12.164Z,99893.80
2019-03-31T01:20:40.629Z,99891.75
2019-03-31T01:23:09.357Z,99893.20
2019-03-31T01:25:37.840Z,99893.84
2019-03-31T01:28:06.362Z,99891.23
2019-03-31T01:30:34.822Z,99893.09
2019-03-31T01:33:03.412Z,99897.92
2019-03-31T01:35:31.940Z,99886.36
2019-03-31T01:38:00.325Z,99884.75
2019-03-31T01:40:28.978Z,99887.41
2019-03-31T01:42:57.364Z,99889.23
2019-03-31T01:45:26.035Z,99891.44
2019-03-31T01:47:54.439Z,99885.50
2019-03-31T01:50:23.107Z,99889.22
2019-03-31T01:52:51.486Z,99891.98
2019-03-31T01:55:19.896Z,99898.53
2019-03-31T01:57:48.287Z,99899.98
2019-03-31T02:00:35.268Z,99896.52
2019-03-31T02:03:03.934Z,99892.58
2019-03-31T02:05:32.326Z,99894.34
2019-03-31T02:08:01.057Z,99888.22
2019-03-31T02:10:29.449Z,99890.83
2019-03-31T02:12:58.235Z,99891.03
2019-03-31T02:15:26.702Z,99888.17
2019-03-31T02:17:55.098Z,99888.53
2019-03-31T02:20:23.514Z,99886.66
2019-03-31T02:22:51.904Z,99891.23
2019-03-31T02:25:20.571Z,99892.58
2019-03-31T02:27:48.980Z,99895.86
2019-03-31T02:30:17.507Z,99890.33
2019-03-31T02:32:45.899Z,99886.72
2019-03-31T02:35:14.498Z,99889.67
2019-03-31T02:37:42.887Z,99883.04
2019-03-31T02:40:11.411Z,99885.45
2019-03-31T02:42:39.825Z,99892.14
2019-03-31T02:45:08.548Z,99897.20
2019-03-31T02:47:36.940Z,99887.95
2019-03-31T02:50:07.174Z,99894.33
2019-03-31T02:52:35.558Z,99894.10
2019-03-31T02:55:04.402Z,99895.16
2019-03-31T02:57:33.343Z,99891.69
2019-03-31T03:00:02.820Z,99888.81
2019-03-31T03:02:42.203Z,99888.36
2019-03-31T03:05:18.881Z,99884.03
2019-03-31T03:07:37.416Z,99886.70
2019-03-31T03:10:06.135Z,99884.55
2019-03-31T03:12:37.573Z,99884.59
2019-03-31T03:15:07.514Z,99884.19
2019-03-31T03:17:35.973Z,99881.09
2019-03-31T03:20:05.325Z,99883.70
2019-03-31T03:22:33.722Z,99880.52
2019-03-31T03:25:02.172Z,99878.14
2019-03-31T03:27:30.536Z,99878.77
2019-03-31T03:29:58.924Z,99877.69
2019-03-31T03:32:27.314Z,99880.19
2019-03-31T03:34:55.743Z,99883.26
2019-03-31T03:37:24.118Z,99882.50
2019-03-31T03:39:52.511Z,99875.53
2019-03-31T03:42:20.923Z,99876.48
2019-03-31T03:44:49.310Z,99869.96
2019-03-31T03:47:17.693Z,99875.64
2019-03-31T03:49:46.105Z,99876.48
2019-03-31T03:52:14.496Z,99870.13
2019-03-31T03:54:42.886Z,99873.37
2019-03-31T03:57:11.296Z,99875.76
2019-03-31T03:59:39.689Z,99873.88
2019-03-31T04:02:08.067Z,99877.22
2019-03-31T04:04:36.477Z,99877.11
2019-03-31T04:07:04.863Z,99870.74
2019-03-31T04:09:33.247Z,99869.70
2019-03-31T04:12:01.657Z,99873.91
2019-03-31T04:14:30.045Z,99866.88
2019-03-31T04:16:58.446Z,99870.32
2019-03-31T04:19:26.863Z,99867.48
2019-03-31T04:21:55.251Z,99869.95
2019-03-31T04:24:23.635Z,99872.84
2019-03-31T04:26:52.039Z,99876.18
2019-03-31T04:29:20.782Z,99871.34
2019-03-31T04:31:49.171Z,99873.22
2019-03-31T04:34:17.588Z,99876.00
2019-03-31T04:36:45.974Z,99881.13
2019-03-31T04:39:14.366Z,99874.43
2019-03-31T04:41:42.779Z,99874.13
2019-03-31T04:44:11.183Z,99875.19
2019-03-31T04:46:39.573Z,99879.83
2019-03-31T04:49:07.989Z,99879.31
2019-03-31T04:51:36.372Z,99882.58
2019-03-31T04:54:05.127Z,99878.53
2019-03-31T04:56:33.529Z,99887.02
2019-03-31T04:59:01.921Z,99880.38
2019-03-31T05:01:30.386Z,99887.61
2019-03-31T05:04:04.977Z,99885.34
2019-03-31T05:06:28.901Z,99887.95
2019-03-31T05:08:57.302Z,99893.89
2019-03-31T05:11:25.778Z,99893.18
2019-03-31T05:13:54.189Z,99886.58
2019-03-31T05:16:22.566Z,99893.56
2019-03-31T05:18:50.958Z,99898.18
2019-03-31T05:21:19.368Z,99889.34
2019-03-31T05:23:47.751Z,99899.36
2019-03-31T05:26:16.167Z,99893.69
2019-03-31T05:28:44.558Z,99897.59
2019-03-31T05:31:12.942Z,99904.88
2019-03-31T05:33:41.345Z,99903.98
2019-03-31T05:36:09.733Z,99902.02
2019-03-31T05:38:38.148Z,99905.40
2019-03-31T05:41:06.537Z,99912.25
2019-03-31T05:43:34.935Z,99914.73
2019-03-31T05:46:03.351Z,99912.38
2019-03-31T05:48:31.734Z,99914.86
2019-03-31T05:51:00.119Z,99916.77
2019-03-31T05:53:28.540Z,99913.94
2019-03-31T05:55:56.930Z,99912.73
2019-03-31T05:58:25.323Z,99909.84
2019-03-31T06:00:54.063Z,99912.08
2019-03-31T06:03:22.444Z,99914.41
2019-03-31T06:05:50.830Z,99905.22
2019-03-31T06:08:19.234Z,99906.56
2019-03-31T06:10:47.630Z,99907.35
2019-03-31T06:13:16.024Z,99910.84
2019-03-31T06:15:44.450Z,99903.63
2019-03-31T06:18:12.839Z,99911.49
2019-03-31T06:20:41.225Z,99905.50
2019-03-31T06:23:09.963Z,99909.47
2019-03-31T06:25:38.348Z,99913.77
2019-03-31T06:28:06.730Z,99910.85
2019-03-31T06:30:35.135Z,99914.50
2019-03-31T06:33:03.551Z,99916.98
2019-03-31T06:35:31.941Z,99907.83
2019-03-31T06:38:00.329Z,99915.71
2019-03-31T06:40:28.746Z,99906.95
2019-03-31T06:42:57.204Z,99906.47
2019-03-31T06:45:25.594Z,99900.31
2019-03-31T06:47:54.003Z,99902.55
2019-03-31T06:50:22.391Z,99903.00
2019-03-31T06:52:50.784Z,99900.91
2019-03-31T06:55:19.198Z,99908.87
2019-03-31T06:57:47.588Z,99900.97
2019-03-31T07:00:16.223Z,99897.92
2019-03-31T07:02:44.635Z,99898.33
2019-03-31T07:05:13.027Z,99906.16
2019-03-31T07:07:41.421Z,99908.23
2019-03-31T07:10:09.920Z,99908.06
2019-03-31T07:12:38.303Z,99908.73
2019-03-31T07:15:08.030Z,99908.73
2019-03-31T07:17:36.506Z,99911.55
2019-03-31T07:20:08.303Z,99918.28
2019-03-31T07:22:36.694Z,99908.02
2019-03-31T07:25:07.843Z,99910.77
2019-03-31T07:27:36.682Z,99908.67
2019-03-31T07:30:08.422Z,99906.11
2019-03-31T07:32:36.960Z,99897.15
2019-03-31T07:35:18.259Z,99904.31
2019-03-31T07:37:47.566Z,99903.59
2019-03-31T07:40:19.150Z,99905.94
2019-03-31T07:42:50.881Z,99902.09
2019-03-31T07:45:18.112Z,99906.72
2019-03-31T07:47:46.536Z,99910.58
2019-03-31T07:50:17.723Z,99903.27
2019-03-31T07:52:46.119Z,99900.38
2019-03-31T07:55:16.453Z,99901.34
2019-03-31T07:57:45.199Z,99901.37
2019-03-31T08:00:19.262Z,99906.67
2019-03-31T08:02:49.208Z,99897.89
2019-03-31T08:05:32.096Z,99903.17
2019-03-31T08:07:48.501Z,99901.41
2019-03-31T08:10:18.618Z,99898.23
2019-03-31T08:12:47.008Z,99898.61
2019-03-31T08:15:15.742Z,99895.89
2019-03-31T08:17:44.247Z,99903.79
2019-03-31T08:20:15.038Z,99903.73
2019-03-31T08:22:43.438Z,99901.41
2019-03-31T08:25:13.630Z,99904.48
2019-03-31T08:27:42.033Z,99904.77
2019-03-31T08:30:12.764Z,99905.98
2019-03-31T08:32:41.661Z,99905.92
2019-03-31T08:35:10.798Z,99907.78
2019-03-31T08:37:39.193Z,99905.55
2019-03-31T08:40:11.847Z,99906.73
2019-03-31T08:42:40.238Z,99904.79
2019-03-31T08:45:09.479Z,99902.61
2019-03-31T08:47:38.414Z,99906.34
2019-03-31T08:50:08.040Z,99905.41
2019-03-31T08:52:36.437Z,99898.58
2019-03-31T08:55:05.909Z,99897.30
2019-03-31T08:57:34.844Z,99900.52
2019-03-31T09:00:04.978Z,99902.92
2019-03-31T09:02:34.741Z,99898.98
2019-03-31T09:05:04.178Z,99900.41
2019-03-31T09:07:32.596Z,99896.64
2019-03-31T09:10:01.096Z,99897.03
2019-03-31T09:12:29.496Z,99897.59
2019-03-31T09:14:57.916Z,99898.25
2019-03-31T09:17:26.306Z,99895.94
2019-03-31T09:19:54.701Z,99885.36
2019-03-31T09:22:23.138Z,99886.86
2019-03-31T09:24:51.616Z,99885.08
2019-03-31T09:27:20.016Z,99887.12
2019-03-31T09:29:48.878Z,99881.73
2019-03-31T09:32:17.274Z,99884.72
2019-03-31T09:34:45.946Z,99884.88
2019-03-31T09:37:14.373Z,99881.31
2019-03-31T09:39:42.779Z,99877.11
2019-03-31T09:42:11.177Z,99875.59
2019-03-31T09:44:39.610Z,99872.19
2019-03-31T09:47:08.072Z,99873.39
2019-03-31T09:49:36.476Z,99875.03
2019-03-31T09:52:05.137Z,99871.16
2019-03-31T09:54:33.526Z,99867.59
2019-03-31T09:57:01.927Z,99872.02
2019-03-31T09:59:30.479Z,99866.31
2019-03-31T10:01:58.887Z,99861.86
2019-03-31T10:04:27.303Z,99859.36
2019-03-31T10:06:56.463Z,99853.38
2019-03-31T10:09:25.502Z,99856.28
2019-03-31T10:11:54.150Z,99856.45
2019-03-31T10:14:22.569Z,99852.83
2019-03-31T10:16:50.978Z,99852.34
2019-03-31T10:19:19.382Z,99855.27
2019-03-31T10:21:47.806Z,99850.70
2019-03-31T10:24:16.217Z,99846.08
2019-03-31T10:26:44.613Z,99846.86
2019-03-31T10:29:13.169Z,99837.01
2019-03-31T10:31:41.567Z,99844.48
2019-03-31T10:34:09.976Z,99840.38
2019-03-31T10:36:44.420Z,99835.45
2019-03-31T10:39:09.365Z,99833.20
2019-03-31T10:41:37.774Z,99833.50
2019-03-31T10:44:06.205Z,99832.49
2019-03-31T10:46:34.606Z,99833.34
2019-03-31T10:49:03.009Z,99824.47
2019-03-31T10:51:31.451Z,99831.44
2019-03-31T10:53:59.842Z,99835.20
2019-03-31T10:56:28.241Z,99828.89
2019-03-31T10:58:56.733Z,99820.36
2019-03-31T11:01:25.131Z,99827.59
2019-03-31T11:03:53.528Z,99827.19
2019-03-31T11:06:22.283Z,99816.28
2019-03-31T11:08:50.682Z,99822.71
2019-03-31T11:11:19.151Z,99822.16
2019-03-31T11:13:47.648Z,99819.30
2019-03-31T11:16:16.317Z,99816.02
2019-03-31T11:18:44.715Z,99818.16
2019-03-31T11:21:14.766Z,99811.91
2019-03-31T11:23:43.182Z,99806.94
2019-03-31T11:26:11.569Z,99805.39
2019-03-31T11:28:39.995Z,99808.97
2019-03-31T11:31:08.387Z,99807.30
2019-03-31T11:33:36.795Z,99798.37
2019-03-31T11:36:05.224Z,99801.10
2019-03-31T11:38:33.614Z,99801.58
2019-03-31T11:41:02.040Z,99800.88
2019-03-31T11:43:30.501Z,99788.24
2019-03-31T11:45:58.903Z,99783.36
2019-03-31T11:48:27.319Z,99780.17
2019-03-31T11:50:55.719Z,99782.99
2019-03-31T11:53:24.112Z,99779.83
2019-03-31T11:55:52.528Z,99786.11
2019-03-31T11:58:20.920Z,99782.00
2019-03-31T12:00:50.963Z,99770.35
2019-03-31T12:03:19.386Z,99771.84
2019-03-31T12:05:47.855Z,99778.29
2019-03-31T12:08:16.249Z,99766.23
2019-03-31T12:10:44.681Z,99765.60
2019-03-31T12:13:13.071Z,99765.92
2019-03-31T12:15:41.476Z,99765.60
2019-03-31T12:18:09.890Z,99763.02
2019-03-31T12:20:38.291Z,99751.11
2019-03-31T12:23:06.689Z,99761.09
2019-03-31T12:25:35.113Z,99758.31
2019-03-31T12:28:03.510Z,99752.22
2019-03-31T12:30:31.907Z,99751.85
2019-03-31T12:33:00.325Z,99747.25
2019-03-31T12:35:28.725Z,99740.63
2019-03-31T12:37:57.114Z,99732.83
2019-03-31T12:40:36.268Z,99746.92
2019-03-31T12:43:05.029Z,99742.28
2019-03-31T12:45:33.421Z,99744.84
2019-03-31T12:48:02.197Z,99738.95
2019-03-31T12:50:30.661Z,99736.80
2019-03-31T12:52:59.055Z,99732.49
2019-03-31T12:55:27.461Z,99731.82
2019-03-31T12:57:55.859Z,99724.83
2019-03-31T13:00:24.252Z,99718.03
2019-03-31T13:02:52.665Z,99716.26
2019-03-31T13:05:21.061Z,99707.66
2019-03-31T13:07:56.371Z,99713.53
2019-03-31T13:10:19.607Z,99722.45
2019-03-31T13:12:48.010Z,99729.50
2019-03-31T13:15:16.407Z,99725.07
2019-03-31T13:17:44.837Z,99723.72
2019-03-31T13:20:13.673Z,99723.33
2019-03-31T13:22:45.644Z,99722.05
2019-03-31T13:25:13.292Z,99718.66
2019-03-31T13:27:41.682Z,99723.84
2019-03-31T13:30:10.758Z,99724.12
2019-03-31T13:32:39.188Z,99720.48
2019-03-31T13:35:08.703Z,99713.23
2019-03-31T13:37:37.189Z,99711.58
2019-03-31T13:40:08.924Z,99725.13
2019-03-31T13:42:37.320Z,99722.34
2019-03-31T13:45:06.685Z,99712.50
2019-03-31T13:47:35.167Z,99715.70
2019-03-31T13:50:05.346Z,99706.31
2019-03-31T13:52:33.770Z,99704.69
2019-03-31T13:55:02.245Z,99707.48
2019-03-31T13:57:31.883Z,99698.81
2019-03-31T14:00:00.997Z,99692.78
2019-03-31T14:02:29.393Z,99691.70
2019-03-31T14:04:57.790Z,99688.19
2019-03-31T14:07:26.676Z,99689.97
2019-03-31T14:09:55.083Z,99684.67
2019-03-31T14:12:23.487Z,99694.53
2019-03-31T14:14:51.911Z,99681.30
2019-03-31T14:17:20.312Z,99683.11
2019-03-31T14:19:48.771Z,99681.85
2019-03-31T14:22:17.186Z,99685.38
2019-03-31T14:24:45.600Z,99690.27
2019-03-31T14:27:13.974Z,99688.97
2019-03-31T14:29:42.735Z,99684.89
2019-03-31T14:32:11.162Z,99684.78
2019-03-31T14:34:39.563Z,99683.44
2019-03-31T14:37:07.978Z,99691.01
2019-03-31T14:39:36.378Z,99684.92
2019-03-31T14:42:04.840Z,99693.93
2019-03-31T14:44:33.247Z,99685.52
2019-03-31T14:47:01.671Z,99687.75
2019-03-31T14:49:30.062Z,99692.59
2019-03-31T14:52:01.254Z,99701.08
2019-03-31T14:54:28.610Z,99703.37
2019-03-31T14:56:57.016Z,99693.59
2019-03-31T14:59:25.411Z,99695.27
2019-03-31T15:01:53.823Z,99690.67
2019-03-31T15:04:22.224Z,99691.97
2019-03-31T15:06:50.648Z,99685.78
2019-03-31T15:09:19.046Z,99681.89
2019-03-31T15:11:47.443Z,99687.08
2019-03-31T15:14:16.165Z,99688.45
2019-03-31T15:16:48.090Z,99696.30
2019-03-31T15:19:14.719Z,99689.08
2019-03-31T15:21:44.383Z,99692.48
2019-03-31T15:24:12.892Z,99692.52
2019-03-31T15:26:41.324Z,99684.92
2019-03-31T15:29:09.720Z,99685.11
2019-03-31T15:31:38.123Z,99691.78
2019-03-31T15:34:06.866Z,99687.59
2019-03-31T15:36:35.268Z,99686.92
2019-03-31T15:39:08.955Z,99693.73
2019-03-31T15:41:36.000Z,99685.14
2019-03-31T15:44:04.848Z,99686.30
2019-03-31T15:46:33.289Z,99685.93
2019-03-31T15:49:01.689Z,99685.93
2019-03-31T15:51:30.094Z,99691.13
2019-03-31T15:53:58.545Z,99687.91
2019-03-31T15:56:26.944Z,99690.47
2019-03-31T15:58:55.339Z,99696.25
2019-03-31T16:01:23.771Z,99700.39
2019-03-31T16:03:52.242Z,99685.62
2019-03-31T16:06:20.647Z,99697.59
2019-03-31T16:08:49.073Z,99698.19
2019-03-31T16:11:17.476Z,99699.30
2019-03-31T16:13:45.906Z,99695.17
2019-03-31T16:16:14.485Z,99694.77
2019-03-31T16:18:42.896Z,99700.48
2019-03-31T16:21:12.499Z,99698.22
2019-03-31T16:23:40.862Z,99704.19
2019-03-31T16:26:09.267Z,99702.94
2019-03-31T16:28:37.697Z,99706.11
2019-03-31T16:31:06.107Z,99703.66
2019-03-31T16:33:34.507Z,99705.70
2019-03-31T16:36:02.959Z,99710.64
2019-03-31T16:38:31.338Z,99704.53
2019-03-31T16:40:59.744Z,99706.34
2019-03-31T16:43:28.163Z,99714.58
2019-03-31T16:45:56.574Z,99712.23
2019-03-31T16:48:24.974Z,99704.72
2019-03-31T16:50:53.396Z,99703.05
2019-03-31T16:53:21.803Z,99707.02
2019-03-31T16:55:50.214Z,99707.59
2019-03-31T16:58:18.639Z,99711.67
2019-03-31T17:00:47.042Z,99718.33
2019-03-31T17:03:18.210Z,99713.19
2019-03-31T17:05:45.584Z,99721.84
2019-03-31T17:08:13.978Z,99723.72
2019-03-31T17:10:42.730Z,99727.84
2019-03-31T17:13:11.144Z,99727.05
2019-03-31T17:15:39.552Z,99736.33
2019-03-31T17:18:07.967Z,99741.73
2019-03-31T17:20:36.373Z,99746.34
2019-03-31T17:23:04.771Z,99753.56
2019-03-31T17:25:33.205Z,99763.36
2019-03-31T17:28:01.597Z,99769.29
2019-03-31T17:30:30.000Z,99779.66
2019-03-31T17:32:58.424Z,99784.68
2019-03-31T17:35:26.834Z,99778.65
2019-03-31T17:37:55.248Z,99770.86
2019-03-31T17:40:24.383Z,99785.48
2019-03-31T17:42:52.793Z,99780.29
2019-03-31T17:45:21.202Z,99772.87
2019-03-31T17:47:49.623Z,99771.61
2019-03-31T17:50:18.047Z,99777.00
2019-03-31T17:52:46.519Z,99784.18
2019-03-31T17:55:14.916Z,99792.66
2019-03-31T17:57:43.348Z,99792.30
2019-03-31T18:00:12.391Z,99792.80
2019-03-31T18:02:41.032Z,99789.33
2019-03-31T18:05:09.594Z,99785.39
2019-03-31T18:07:38.053Z,99783.70
2019-03-31T18:10:19.991Z,99786.80
2019-03-31T18:12:38.049Z,99788.19
2019-03-31T18:15:06.690Z,99783.80
2019-03-31T18:17:35.097Z,99794.41
2019-03-31T18:20:04.856Z,99788.26
2019-03-31T18:22:33.257Z,99788.72
2019-03-31T18:25:01.681Z,99791.83
2019-03-31T18:27:30.092Z,99789.67
2019-03-31T18:29:58.496Z,99797.67
2019-03-31T18:32:26.922Z,99799.02
2019-03-31T18:34:55.337Z,99804.78
2019-03-31T18:37:23.743Z,99802.14
2019-03-31T18:39:52.161Z,99807.01
2019-03-31T18:42:20.585Z,99811.02
2019-03-31T18:44:49.037Z,99816.77
2019-03-31T18:47:17.426Z,99820.30
2019-03-31T18:49:45.820Z,99825.16
2019-03-31T18:52:14.255Z,99833.53
2019-03-31T18:55:02.303Z,99834.41
2019-03-31T18:57:38.110Z,99837.95
2019-03-31T19:00:17.444Z,99845.88
2019-03-31T19:02:50.170Z,99848.54
2019-03-31T19:05:36.644Z,99842.32
2019-03-31T19:08:22.682Z,99849.38
2019-03-31T19:10:58.172Z,99851.16
2019-03-31T19:13:54.690Z,99856.87
2019-03-31T19:16:15.656Z,99852.02
2019-03-31T19:18:45.695Z,99852.02
2019-03-31T19:21:15.745Z,99858.16
2019-03-31T19:24:05.482Z,99860.81
2019-03-31T19:26:48.114Z,99864.77
2019-03-31T19:29:11.909Z,99864.31
2019-03-31T19:31:58.060Z,99864.31
2019-03-31T19:34:36.741Z,99863.38
2019-03-31T19:37:06.784Z,99871.33
2019-03-31T19:39:49.071Z,99878.39
2019-03-31T19:42:21.770Z,99878.38
2019-03-31T19:44:54.606Z,99877.97
2019-03-31T19:47:24.681Z,99887.19
2019-03-31T19:49:55.144Z,99881.92
2019-03-31T19:52:41.555Z,99891.20
2019-03-31T19:55:26.920Z,99892.98
2019-03-31T19:58:02.641Z,99897.84
2019-03-31T20:00:32.679Z,99900.45
2019-03-31T20:03:05.877Z,99889.88
2019-03-31T20:05:53.853Z,99892.50
2019-03-31T20:08:35.828Z,99896.88
2019-03-31T20:11:15.129Z,99899.47
2019-03-31T20:13:48.058Z,99895.45
2019-03-31T20:16:18.102Z,99905.52
2019-03-31T20:19:03.398Z,99903.30
2019-03-31T20:21:33.428Z,99903.68
2019-03-31T20:24:12.603Z,99919.47
2019-03-31T20:26:48.572Z,99913.69
2019-03-31T20:29:18.604Z,99910.98
2019-03-31T20:31:48.674Z,99919.27
2019-03-31T20:34:18.720Z,99913.06
2019-03-31T20:36:54.759Z,99920.03
2019-03-31T20:39:25.162Z,99922.64
2019-03-31T20:42:00.701Z,99925.68
2019-03-31T20:44:29.092Z,99921.70
2019-03-31T20:46:57.527Z,99920.38
2019-03-31T20:49:25.926Z,99919.91
2019-03-31T20:51:54.329Z,99920.31
2019-03-31T20:54:22.760Z,99926.91
2019-03-31T20:56:51.162Z,99926.84
2019-03-31T20:59:19.561Z,99924.20
2019-03-31T21:01:47.980Z,99925.50
2019-03-31T21:04:16.377Z,99927.31
2019-03-31T21:06:44.782Z,99929.00
2019-03-31T21:09:13.201Z,99931.14
2019-03-31T21:11:41.602Z,99937.27
2019-03-31T21:14:10.004Z,99941.67
2019-03-31T21:16:38.447Z,99932.87
2019-03-31T21:19:06.850Z,99932.83
2019-03-31T21:21:35.243Z,99927.97
2019-03-31T21:24:03.655Z,99937.16
2019-03-31T21:26:32.367Z,99933.66
2019-03-31T21:29:00.762Z,99931.92
2019-03-31T21:31:29.339Z,99934.96
2019-03-31T21:33:57.729Z,99935.40
2019-03-31T21:36:26.198Z,99934.45
2019-03-31T21:38:54.539Z,99947.61
2019-03-31T21:41:22.942Z,99942.39
2019-03-31T21:43:51.341Z,99939.71
2019-03-31T21:46:19.778Z,99946.70
2019-03-31T21:48:48.171Z,99940.95
2019-03-31T21:51:16.571Z,99951.00
2019-03-31T21:53:44.983Z,99946.14
2019-03-31T21:56:13.387Z,99946.53
2019-03-31T21:58:41.790Z,99947.36
2019-03-31T22:01:10.308Z,99941.65
2019-03-31T22:03:38.702Z,99949.95
2019-03-31T22:06:07.112Z,99954.36
2019-03-31T22:08:35.785Z,99947.75
2019-03-31T22:11:04.194Z,99944.57
2019-03-31T22:13:32.616Z,99949.81
2019-03-31T22:16:01.026Z,99942.34
2019-03-31T22:18:29.416Z,99948.91
2019-03-31T22:20:57.848Z,99948.03
2019-03-31T22:23:26.242Z,99947.92
2019-03-31T22:25:54.643Z,99946.16
2019-03-31T22:28:23.050Z,99947.03
2019-03-31T22:30:51.451Z,99951.38
2019-03-31T22:33:19.867Z,99945.18
2019-03-31T22:36:06.362Z,99946.88
2019-03-31T22:38:34.780Z,99951.17
2019-03-31T22:41:03.171Z,99938.95
2019-03-31T22:43:31.562Z,99946.41
2019-03-31T22:46:00.122Z,99943.70
2019-03-31T22:48:28.519Z,99929.19
2019-03-31T22:50:56.922Z,99941.41
2019-03-31T22:53:25.360Z,99942.23
2019-03-31T22:55:53.759Z,99946.55
2019-03-31T22:58:22.151Z,99948.76
2019-03-31T23:00:50.850Z,99942.19
2019-03-31T23:03:19.240Z,99944.86
2019-03-31T23:05:47.645Z,99943.05
2019-03-31T23:08:16.067Z,99931.68
2019-03-31T23:10:44.735Z,99932.55
2019-03-31T23:13:13.187Z,99930.34
2019-03-31T23:15:41.581Z,99941.22
2019-03-31T23:18:09.975Z,99929.75
2019-03-31T23:20:38.396Z,99929.25
2019-03-31T23:23:06.801Z,99934.41
2019-03-31T23:25:35.189Z,99935.23
2019-03-31T23:28:03.613Z,99929.08
2019-03-31T23:30:32.011Z,99933.41
2019-03-31T23:33:00.406Z,99930.73
2019-03-31T23:35:28.833Z,99931.53
2019-03-31T23:37:57.232Z,99926.66
2019-03-31T23:40:25.625Z,99928.73
2019-03-31T23:42:54.383Z,99932.22
2019-03-31T23:45:22.735Z,99930.88
2019-03-31T23:47:51.129Z,99924.25
2019-03-31T23:50:19.555Z,99928.56
2019-03-31T23:52:47.954Z,99921.06
2019-03-31T23:55:16.359Z,99910.47
2019-03-31T23:57:45.044Z,99923.61
